Ceres, United Kingdom
Current Conditions -  °F | °C
As of 12:50 AM on Tuesday 25 Nov 2014 (Local Time) from EGQL Reporting Station
Clear Clear  
Wind Chill: 41°   Ceiling: Unl
Heat Index: 41°   Visibility: 6mi
Dew Point: 39°   Wind: 1mph
Humidity: 93%   Direction: 230°SW
Pressure: 30.21"   Gusts: NA
Location:  56.29°N, 2.97°W
Report Text: EGQL 250050Z 23001KT CAVOK 05/04 Q1023 BLU
Loading
Personal Weather Stations






























Interactive Weather Map New forecast layout! Learn more

10-Day Weather Forecast

Advertisements
Track Severe Weather on mobile